ADDS METAR Data INFO
IDs: Format: Raw Decoded Include TAF

Data at: 2313 UTC 16 Jan 2018

KRTS 162255Z AUTO 10004KT 10SM FEW042 FEW065 10/02 A3028 RMK AO2
KRTS 162235Z AUTO 14003KT 10SM FEW042 BKN065 10/01 A3028 RMK AO2
KRTS 162215Z AUTO 11004KT 10SM OVC065 10/01 A3028 RMK AO2
KRTS 162155Z AUTO 08006KT 10SM BKN065 10/00 A3028 RMK AO2
KRTS 162135Z AUTO 09004KT 10SM OVC065 10/00 A3029 RMK AO2
KRTS 162115Z AUTO 13003KT 10SM OVC065 10/00 A3029 RMK AO2
KRTS 162055Z AUTO 06003KT 10SM OVC065 10/00 A3030 RMK AO2
KRTS 162035Z AUTO 09005KT 10SM FEW043 OVC065 09/01 A3030 RMK AO2
KRTS 162015Z AUTO 00000KT 10SM FEW043 OVC065 09/01 A3031 RMK AO2
KRTS 161955Z AUTO 00000KT 10SM OVC065 08/01 A3031 RMK AO2
KRTS 161935Z AUTO 14003KT 10SM FEW042 OVC065 08/01 A3031 RMK AO2
KRTS 161915Z AUTO 14004KT 10SM BKN040 OVC055 09/01 A3032 RMK AO2
KRTS 161855Z AUTO 07003KT 10SM SCT040 BKN048 OVC055 08/01 A3034 RMK AO2
KRTS 161835Z AUTO 11003KT 10SM BKN046 OVC060 08/01 A3034 RMK AO2
KRTS 161815Z AUTO 07004KT 10SM BKN048 OVC060 07/01 A3034 RMK AO2
KRTS 161755Z AUTO 10005KT 10SM OVC050 07/01 A3033 RMK AO2
KRTS 161735Z AUTO 09007KT 10SM OVC060 07/01 A3033 RMK AO2
KRTS 161715Z AUTO 10005KT 10SM OVC060 06/01 A3032 RMK AO2
KRTS 161655Z AUTO 11003KT 10SM OVC060 06/01 A3031 RMK AO2
KRTS 161635Z AUTO 32006KT 10SM BKN039 OVC060 06/01 A3031 RMK AO2
KRTS 161615Z AUTO 31009KT 10SM OVC041 05/01 A3031 RMK AO2
KRTS 161555Z AUTO 33008KT 10SM OVC048 05/01 A3030 RMK AO2
KRTS 161535Z AUTO 35007KT 10SM OVC048 04/00 A3028 RMK AO2
KRTS 161515Z AUTO 33009KT 10SM OVC050 05/00 A3029 RMK AO2
KRTS 161455Z AUTO 34008KT 10SM BKN050 OVC060 04/00 A3029 RMK AO2
KRTS 161435Z AUTO 33007KT 10SM SCT040 OVC070 04/00 A3029 RMK AO2
KRTS 161415Z AUTO 32005KT 10SM OVC040 04/00 A3029 RMK AO2
KRTS 161355Z AUTO 34006KT 10SM BKN038 OVC050 04/00 A3029 RMK AO2
KRTS 161335Z AUTO 32008KT 10SM -RA BKN036 BKN044 OVC050 05/00 A3029 RMK AO2
KRTS 161315Z AUTO 34012G15KT 10SM -RA SCT042 OVC050 06/00 A3027 RMK AO2
KRTS 161255Z AUTO 26014G21KT 10SM BKN050 OVC060 07/M02 A3025 RMK AO2
KRTS 161235Z AUTO 25015G23KT 10SM OVC060 08/M03 A3024 RMK AO2
KRTS 161215Z AUTO 31004KT 10SM BKN060 BKN070 07/M04 A3023 RMK AO2
KRTS 161155Z AUTO 34004KT 10SM BKN060 OVC080 07/M04 A3022 RMK AO2
KRTS 161135Z AUTO 07007KT 10SM BKN080 OVC100 08/M04 A3022 RMK AO2
KRTS 161115Z AUTO 24010G17KT 10SM SCT070 OVC100 09/M05 A3021 RMK AO2
KRTS 161055Z AUTO 20005KT 10SM SCT070 OVC090 09/M05 A3022 RMK AO2
KRTS 161035Z AUTO 27006KT 10SM BKN070 OVC110 07/M04 A3022 RMK AO2
KRTS 161015Z AUTO 21004KT 10SM OVC110 09/M05 A3021 RMK AO2
KRTS 160955Z AUTO 26004KT 10SM BKN110 06/M02 A3020 RMK AO2
KRTS 160935Z AUTO 25003KT 10SM FEW100 05/M01 A3018 RMK AO2
KRTS 160915Z AUTO 13006KT 10SM FEW120 05/M01 A3018 RMK AO2
KRTS 160855Z AUTO 26005KT 10SM CLR 04/00 A3018 RMK AO2
KRTS 160835Z AUTO 00000KT 10SM CLR 03/00 A3018 RMK AO2
KRTS 160815Z AUTO 00000KT 10SM CLR 03/M01 A3019 RMK AO2
KRTS 160755Z AUTO 14006KT 10SM FEW120 02/00 A3019 RMK AO2
KRTS 160735Z AUTO 18006KT 10SM SCT120 02/00 A3019 RMK AO2
KRTS 160715Z AUTO 00000KT 10SM CLR 00/M01 A3020 RMK AO2
KRTS 160655Z AUTO 09004KT 10SM FEW120 02/00 A3020 RMK AO2
KRTS 160635Z AUTO 06004KT 10SM SCT120 00/M01 A3021 RMK AO2
KRTS 160615Z AUTO 00000KT 10SM BKN120 02/M01 A3021 RMK AO2
KRTS 160555Z AUTO 23006KT 10SM BKN120 01/M01 A3022 RMK AO2
KRTS 160535Z AUTO 36004KT 10SM FEW120 00/M02 A3021 RMK AO2
KRTS 160515Z AUTO 09004KT 10SM CLR 02/M02 A3021 RMK AO2
KRTS 160455Z AUTO 36004KT 10SM CLR 00/M02 A3021 RMK AO2
KRTS 160435Z AUTO 30004KT 10SM CLR 00/M02 A3021 RMK AO2
KRTS 160415Z AUTO 29003KT 10SM CLR 02/00 A3020 RMK AO2
KRTS 160355Z AUTO 03003KT 10SM FEW085 04/00 A3019 RMK AO2
KRTS 160335Z AUTO 35005KT 10SM CLR 02/M01 A3020 RMK AO2
KRTS 160315Z AUTO 36005KT 10SM FEW120 02/00 A3020 RMK AO2
KRTS 160255Z AUTO 32003KT 10SM SCT120 03/00 A3019 RMK AO2
KRTS 160235Z AUTO 33003KT 10SM CLR 04/00 A3019 RMK AO2
KRTS 160215Z AUTO 00000KT 10SM CLR 05/00 A3020 RMK AO2
KRTS 160155Z AUTO 12006KT 10SM CLR 05/00 A3019 RMK AO2
KRTS 160135Z AUTO 00000KT 10SM CLR 05/00 A3021 RMK AO2
KRTS 160115Z AUTO 03004KT 10SM CLR 05/00 A3020 RMK AO2
KRTS 160055Z AUTO 07003KT 10SM CLR 07/00 A3020 RMK AO2
KRTS 160035Z AUTO 00000KT 10SM CLR 08/00 A3020 RMK AO2
KRTS 160015Z AUTO 21004KT 10SM CLR 09/M01 A3020 RMK AO2
KRTS 152355Z AUTO 00000KT 10SM CLR 09/00 A3020 RMK AO2
KRTS 152335Z AUTO 14003KT 10SM CLR 09/00 A3021 RMK AO2
KRTS 152315Z AUTO 13006KT 10SM FEW110 09/00 A3020 RMK AO2
KRTS 152255Z AUTO 14003KT 10SM BKN110 09/M01 A3021 RMK AO2
KRTS 152235Z AUTO 00000KT 10SM FEW110 09/00 A3020 RMK AO2
KRTS 152215Z AUTO 00000KT 10SM CLR 09/00 A3020 RMK AO2
KRTS 152155Z AUTO 24003KT 10SM CLR 09/00 A3019 RMK AO2
KRTS 152135Z AUTO 00000KT 10SM CLR 09/00 A3020 RMK AO2
KRTS 152115Z AUTO 11003KT 10SM CLR 09/00 A3020 RMK AO2
KRTS 152055Z AUTO 00000KT 10SM CLR 09/00 A3021 RMK AO2
KRTS 152035Z AUTO 00000KT 10SM CLR 08/00 A3022 RMK AO2
KRTS 152015Z AUTO 34003KT 10SM FEW120 07/00 A3022 RMK AO2
KRTS 151955Z AUTO 19003KT 10SM FEW120 07/00 A3023 RMK AO2
KRTS 151935Z AUTO 00000KT 10SM SCT120 06/00 A3024 RMK AO2
KRTS 151915Z AUTO 00000KT 10SM FEW120 05/00 A3025 RMK AO2
KRTS 151855Z AUTO 00000KT 10SM FEW120 05/00 A3027 RMK AO2
KRTS 151835Z AUTO 00000KT 10SM CLR 04/00 A3028 RMK AO2
KRTS 151815Z AUTO 00000KT 10SM CLR 04/00 A3028 RMK AO2
KRTS 151755Z AUTO 00000KT 10SM CLR 03/00 A3028 RMK AO2
KRTS 151735Z AUTO 00000KT 10SM CLR 02/M01 A3028 RMK AO2
KRTS 151715Z AUTO 00000KT 10SM CLR 02/M01 A3028 RMK AO2
KRTS 151655Z AUTO 00000KT 10SM FEW110 00/M02 A3028 RMK AO2
KRTS 151635Z AUTO 00000KT 10SM FEW110 00/M02 A3028 RMK AO2
KRTS 151615Z AUTO 13005KT 10SM CLR 00/M02 A3028 RMK AO2
KRTS 151555Z AUTO 35003KT 10SM CLR M01/M02 A3028 RMK AO2
KRTS 151535Z AUTO 00000KT 10SM CLR M03/M04 A3028 RMK AO2
KRTS 151515Z AUTO 36004KT 10SM CLR M04/M05 A3027 RMK AO2
KRTS 151455Z AUTO 00000KT 10SM CLR M02/M03 A3027 RMK AO2
KRTS 151435Z AUTO 00000KT 10SM CLR M02/M02 A3026 RMK AO2
KRTS 151415Z AUTO 00000KT 10SM CLR M02/M03 A3026 RMK AO2
KRTS 151355Z AUTO 00000KT 10SM CLR M02/M03 A3025 RMK AO2
KRTS 151335Z AUTO 05004KT 10SM CLR M02/M03 A3025 RMK AO2
KRTS 151315Z AUTO 30003KT 10SM CLR M03/M04 A3025 RMK AO2
KRTS 151255Z AUTO 28003KT 10SM CLR M03/M04 A3025 RMK AO2
KRTS 151235Z AUTO 00000KT 10SM CLR M01/M02 A3025 RMK AO2
KRTS 151215Z AUTO 00000KT 10SM CLR M01/M02 A3026 RMK AO2
KRTS 151155Z AUTO 28004KT 10SM FEW120 M01/M03 A3027 RMK AO2
KRTS 151135Z AUTO 10003KT 10SM BKN120 00/M01 A3027 RMK AO2
KRTS 151115Z AUTO 00000KT 10SM SCT110 00/M02 A3027 RMK AO2